Time;durP1;ratioP1;P1;durP2;ratioP2;P2;SDS_P1;SDS_P2;PMS_P1;PMS_P2;Temp;Humidity;BMP_temperature;BMP_pressure;BME280_temperature;BME280_humidity;BME280_pressure;Samples;Min_cycle;Max_cycle;Signal;HPM_P1;HPM_P2
2022/10/23 00:06:29;;;;;;;4.55;1.05;;;;;;;;;;21094567;28;20062;-61
2022/10/23 00:16:31;;;;;;;3.05;1.00;;;;;;;;;;21093805;28;20055;-61
2022/10/23 00:26:34;;;;;;;3.08;1.30;;;;;;;;;;21091979;28;20508;-62
2022/10/23 00:36:36;;;;;;;3.40;1.70;;;;;;;;;;21090711;28;20056;-62
2022/10/23 00:46:39;;;;;;;3.38;1.77;;;;;;;;;;21089788;28;20056;-62
2022/10/23 00:56:43;;;;;;;7.15;1.58;;;;;;;;;;21090108;28;20134;-61
2022/10/23 01:06:52;;;;;;;2.50;0.93;;;;;;;;;;21087675;28;20048;-62
2022/10/23 01:16:53;;;;;;;;;;;;;;;;;;21088423;28;20044;-62
2022/10/23 01:27:16;;;;;;;3.22;1.67;;;;;;;;;;21069541;28;19920;-62
2022/10/23 01:37:22;;;;;;;4.30;1.25;;;;;;;;;;21086136;28;20055;-62
2022/10/23 01:47:28;;;;;;;2.97;0.93;;;;;;;;;;21085245;28;20551;-62
2022/10/23 01:57:35;;;;;;;4.35;1.00;;;;;;;;;;21067858;28;20472;-61
2022/10/23 02:07:38;;;;;;;2.33;0.70;;;;;;;;;;21083764;28;20048;-62
2022/10/23 02:18:03;;;;;;;2.08;1.00;;;;;;;;;;21082584;28;20043;-61
2022/10/23 02:28:10;;;;;;;3.33;1.17;;;;;;;;;;21083378;28;20468;-61
2022/10/23 02:38:31;;;;;;;3.17;1.13;;;;;;;;;;21082786;28;20059;-61
2022/10/23 02:48:38;;;;;;;3.05;0.82;;;;;;;;;;21080370;28;20139;-62
2022/10/23 02:58:55;;;;;;;4.10;0.75;;;;;;;;;;21080915;28;20048;-61
2022/10/23 03:08:59;;;;;;;4.45;1.50;;;;;;;;;;21080008;28;20177;-61
2022/10/23 03:19:02;;;;;;;6.35;0.98;;;;;;;;;;21078728;28;20153;-60
2022/10/23 03:29:05;;;;;;;6.97;1.15;;;;;;;;;;21079278;28;20468;-61
2022/10/23 03:39:08;;;;;;;1.98;0.70;;;;;;;;;;21095822;28;20544;-61
2022/10/23 03:49:10;;;;;;;2.17;0.80;;;;;;;;;;21094528;28;20060;-62
2022/10/23 03:59:12;;;;;;;2.08;0.80;;;;;;;;;;21094624;28;20480;-62
2022/10/23 04:09:15;;;;;;;3.65;0.90;;;;;;;;;;21094125;28;20407;-62
2022/10/23 04:19:17;;;;;;;2.85;0.85;;;;;;;;;;21092678;28;20040;-61
2022/10/23 04:29:23;;;;;;;3.60;0.82;;;;;;;;;;21075026;28;20075;-61
2022/10/23 04:39:25;;;;;;;3.90;0.98;;;;;;;;;;21091028;28;20044;-62
2022/10/23 04:49:28;;;;;;;2.25;1.05;;;;;;;;;;21089328;28;20381;-62
2022/10/23 04:59:30;;;;;;;2.90;0.98;;;;;;;;;;21089615;28;20518;-61
2022/10/23 05:09:32;;;;;;;3.03;0.98;;;;;;;;;;21088948;28;20044;-61
2022/10/23 05:19:39;;;;;;;2.65;0.75;;;;;;;;;;21087964;28;20253;-61
2022/10/23 05:29:43;;;;;;;3.03;1.30;;;;;;;;;;21087645;28;20134;-61
2022/10/23 05:39:45;;;;;;;2.60;1.30;;;;;;;;;;21085886;28;20040;-61
2022/10/23 05:49:48;;;;;;;3.95;1.35;;;;;;;;;;21084847;28;20059;-61
2022/10/23 05:59:51;;;;;;;3.90;2.08;;;;;;;;;;21085200;28;20048;-61
2022/10/23 06:09:53;;;;;;;3.53;1.80;;;;;;;;;;21083982;28;20097;-60
2022/10/23 06:20:01;;;;;;;4.78;1.80;;;;;;;;;;21082902;28;20051;-62
2022/10/23 06:30:03;;;;;;;2.90;1.35;;;;;;;;;;21083042;28;20391;-61
2022/10/23 06:40:07;;;;;;;3.55;1.70;;;;;;;;;;21081126;28;20048;-61
2022/10/23 06:50:09;;;;;;;3.78;2.15;;;;;;;;;;21064103;28;20048;-63
2022/10/23 07:00:12;;;;;;;3.42;1.80;;;;;;;;;;21080321;28;20043;-62
2022/10/23 07:10:14;;;;;;;3.55;1.80;;;;;;;;;;21080076;28;20416;-61
2022/10/23 07:20:16;;;;;;;4.18;2.22;;;;;;;;;;21080545;28;20044;-62
2022/10/23 07:30:19;;;;;;;11.15;5.72;;;;;;;;;;21081493;28;20476;-61
2022/10/23 07:40:22;;;;;;;10.27;5.05;;;;;;;;;;21081194;28;20450;-61
2022/10/23 07:50:25;;;;;;;11.27;5.35;;;;;;;;;;21079887;28;20078;-62
2022/10/23 08:00:27;;;;;;;9.63;3.42;;;;;;;;;;21079242;28;20546;-62
2022/10/23 08:10:29;;;;;;;8.40;3.80;;;;;;;;;;21079396;28;20052;-61
2022/10/23 08:20:33;;;;;;;4.00;1.50;;;;;;;;;;21086954;28;20040;-61
2022/10/23 08:30:35;;;;;;;4.10;1.20;;;;;;;;;;21092894;28;20052;-61
2022/10/23 08:40:43;;;;;;;6.57;1.40;;;;;;;;;;21092529;28;20060;-62
2022/10/23 08:50:48;;;;;;;2.65;1.25;;;;;;;;;;21090822;28;20094;-62
2022/10/23 09:00:51;;;;;;;4.28;0.90;;;;;;;;;;21091288;28;20048;-61
2022/10/23 09:11:17;;;;;;;6.57;1.80;;;;;;;;;;21089563;28;20140;-61
2022/10/23 09:21:20;;;;;;;5.65;1.00;;;;;;;;;;21070275;28;20055;-63
2022/10/23 09:31:22;;;;;;;3.42;0.77;;;;;;;;;;21087354;28;20476;-62
2022/10/23 09:41:26;;;;;;;3.58;0.80;;;;;;;;;;21079231;28;20454;-62
2022/10/23 09:51:29;;;;;;;5.32;0.90;;;;;;;;;;21086744;28;20381;-61
2022/10/23 10:01:34;;;;;;;2.10;0.50;;;;;;;;;;21085951;28;20076;-60
2022/10/23 10:11:44;;;;;;;1.60;0.60;;;;;;;;;;21067638;28;20059;-62
2022/10/23 10:21:46;;;;;;;2.15;0.52;;;;;;;;;;21066652;28;20048;-61
2022/10/23 10:31:53;;;;;;;2.70;0.88;;;;;;;;;;21082117;28;20052;-61
2022/10/23 10:42:15;;;;;;;3.10;0.50;;;;;;;;;;21081052;28;20412;-62
2022/10/23 10:52:20;;;;;;;2.47;0.82;;;;;;;;;;21082070;28;20450;-61
2022/10/23 11:02:40;;;;;;;1.42;0.40;;;;;;;;;;21080571;28;20056;-62
2022/10/23 11:12:44;;;;;;;4.00;0.85;;;;;;;;;;21080024;28;20127;-62
2022/10/23 11:23:06;;;;;;;5.07;1.02;;;;;;;;;;21079429;28;20511;-61
2022/10/23 11:33:08;;;;;;;4.65;1.08;;;;;;;;;;20739195;28;20064;-60
2022/10/23 11:43:10;;;;;;;4.85;1.10;;;;;;;;;;20738363;28;20085;-62
2022/10/23 11:53:25;;;;;;;5.13;1.45;;;;;;;;;;20743777;28;20546;-62
2022/10/23 12:03:36;;;;;;;5.07;1.35;;;;;;;;;;20824460;28;20048;-61
2022/10/23 12:13:38;;;;;;;5.18;1.38;;;;;;;;;;21093532;28;20052;-62
2022/10/23 12:24:06;;;;;;;6.97;1.77;;;;;;;;;;21094531;28;20545;-61
2022/10/23 12:34:09;;;;;;;;;;;;;;;;;;21090460;28;20087;-61
2022/10/23 12:44:12;;;;;;;5.80;0.98;;;;;;;;;;21091222;28;19965;-61
2022/10/23 12:54:18;;;;;;;6.63;1.50;;;;;;;;;;21092659;28;20138;-62
2022/10/23 13:04:30;;;;;;;7.90;1.45;;;;;;;;;;21089143;28;20127;-62
2022/10/23 13:14:36;;;;;;;7.15;1.52;;;;;;;;;;21070753;28;20059;-62
2022/10/23 13:24:40;;;;;;;9.05;1.88;;;;;;;;;;21087476;28;20055;-60
2022/10/23 13:34:50;;;;;;;5.03;1.30;;;;;;;;;;21087926;28;20476;-61
2022/10/23 13:44:53;;;;;;;4.97;1.27;;;;;;;;;;21085280;28;20048;-62
2022/10/23 13:54:56;;;;;;;3.88;1.00;;;;;;;;;;21085792;28;20085;-62
2022/10/23 14:04:58;;;;;;;5.18;1.15;;;;;;;;;;21084830;28;20416;-62
2022/10/23 14:15:00;;;;;;;5.50;0.95;;;;;;;;;;21064651;28;20049;-62
2022/10/23 14:25:04;;;;;;;4.57;1.15;;;;;;;;;;21082172;28;20460;-62
2022/10/23 14:35:06;;;;;;;5.35;1.10;;;;;;;;;;21081973;28;20103;-64
2022/10/23 14:45:09;;;;;;;6.85;0.80;;;;;;;;;;21081704;28;20044;-61
2022/10/23 14:55:11;;;;;;;4.15;0.77;;;;;;;;;;21081604;28;20059;-61
2022/10/23 15:05:13;;;;;;;5.13;1.00;;;;;;;;;;21061559;28;20048;-63
2022/10/23 15:15:15;;;;;;;7.35;1.73;;;;;;;;;;21079125;28;20074;-61
2022/10/23 15:25:17;;;;;;;6.10;3.10;;;;;;;;;;21078155;28;20040;-64
2022/10/23 15:35:20;;;;;;;4.18;0.90;;;;;;;;;;21077907;28;20056;-62
2022/10/23 15:45:22;;;;;;;5.53;0.80;;;;;;;;;;21078368;28;20052;-61
2022/10/23 15:55:25;;;;;;;4.80;1.73;;;;;;;;;;21079704;28;20189;-62
2022/10/23 16:05:27;;;;;;;9.93;3.90;;;;;;;;;;21078085;28;20040;-61
2022/10/23 16:15:30;;;;;;;3.67;1.30;;;;;;;;;;21077174;28;20070;-61
2022/10/23 16:25:36;;;;;;;4.97;1.75;;;;;;;;;;21077348;28;20048;-61
2022/10/23 16:35:39;;;;;;;3.67;0.90;;;;;;;;;;21075214;28;20059;-62
2022/10/23 16:45:41;;;;;;;5.75;2.75;;;;;;;;;;21070290;28;20401;-62
2022/10/23 16:55:42;;;;;;;4.30;0.95;;;;;;;;;;21090479;28;20404;-62
2022/10/23 17:05:45;;;;;;;3.53;0.93;;;;;;;;;;21091881;28;20079;-62
2022/10/23 17:15:47;;;;;;;8.77;1.75;;;;;;;;;;21088487;28;20052;-63
2022/10/23 17:25:49;;;;;;;8.65;2.20;;;;;;;;;;21070063;28;20169;-63
2022/10/23 17:35:52;;;;;;;4.13;1.00;;;;;;;;;;21086531;28;20048;-62
2022/10/23 17:45:54;;;;;;;2.58;0.90;;;;;;;;;;21085418;28;20433;-62
2022/10/23 17:55:57;;;;;;;2.42;1.17;;;;;;;;;;21083814;28;20503;-62
2022/10/23 18:06:09;;;;;;;3.17;0.98;;;;;;;;;;21083876;28;20055;-61
2022/10/23 18:16:12;;;;;;;6.18;1.67;;;;;;;;;;21083370;28;20404;-62
2022/10/23 18:26:20;;;;;;;3.60;1.50;;;;;;;;;;21082179;28;20059;-62
2022/10/23 18:36:23;;;;;;;3.95;1.30;;;;;;;;;;21082568;28;20484;-62
2022/10/23 18:46:25;;;;;;;3.55;1.40;;;;;;;;;;21063680;28;20066;-62
2022/10/23 18:56:27;;;;;;;3.25;1.30;;;;;;;;;;21081482;28;20097;-62
2022/10/23 19:06:30;;;;;;;3.20;1.63;;;;;;;;;;21061795;28;20494;-62
2022/10/23 19:16:38;;;;;;;5.15;2.15;;;;;;;;;;21079524;28;20469;-61
2022/10/23 19:26:41;;;;;;;5.25;2.17;;;;;;;;;;21078689;28;20449;-61
2022/10/23 19:36:43;;;;;;;6.47;2.58;;;;;;;;;;21078208;28;20044;-62
2022/10/23 19:46:46;;;;;;;4.07;2.42;;;;;;;;;;21077569;28;20048;-62
2022/10/23 19:56:48;;;;;;;4.50;2.10;;;;;;;;;;21077359;28;20055;-61
2022/10/23 20:06:50;;;;;;;5.88;2.42;;;;;;;;;;21059237;28;20052;-63
2022/10/23 20:16:52;;;;;;;4.07;2.40;;;;;;;;;;21086372;28;20080;-61
2022/10/23 20:26:55;;;;;;;4.38;2.40;;;;;;;;;;21093150;28;20480;-61
2022/10/23 20:36:58;;;;;;;8.15;2.38;;;;;;;;;;21091763;28;20091;-61
2022/10/23 20:47:01;;;;;;;5.80;2.83;;;;;;;;;;21090562;28;20056;-62
2022/10/23 20:57:03;;;;;;;7.65;2.85;;;;;;;;;;21090313;28;20084;-62
2022/10/23 21:07:06;;;;;;;6.60;3.25;;;;;;;;;;21089644;28;20052;-61
2022/10/23 21:17:15;;;;;;;6.18;3.33;;;;;;;;;;21072283;28;20400;-61
2022/10/23 21:27:17;;;;;;;9.10;3.35;;;;;;;;;;21087845;28;20040;-62
2022/10/23 21:37:20;;;;;;;6.57;3.15;;;;;;;;;;21087150;28;20051;-61
2022/10/23 21:47:22;;;;;;;8.73;3.20;;;;;;;;;;21086185;28;20048;-61
2022/10/23 21:57:25;;;;;;;6.57;2.90;;;;;;;;;;21085476;28;20056;-62
2022/10/23 22:07:28;;;;;;;8.82;3.55;;;;;;;;;;21067604;28;20052;-62
2022/10/23 22:17:30;;;;;;;5.78;2.50;;;;;;;;;;21083417;28;20056;-62
2022/10/23 22:27:32;;;;;;;4.45;2.40;;;;;;;;;;21082617;28;20044;-60
2022/10/23 22:37:34;;;;;;;5.35;2.40;;;;;;;;;;21081642;28;20131;-61
2022/10/23 22:47:36;;;;;;;6.72;2.45;;;;;;;;;;21081808;28;20169;-61
2022/10/23 22:57:38;;;;;;;4.72;2.28;;;;;;;;;;21063346;28;20070;-63
2022/10/23 23:07:40;;;;;;;5.97;2.50;;;;;;;;;;21081304;28;20050;-61
2022/10/23 23:17:42;;;;;;;7.07;2.92;;;;;;;;;;21079460;28;20052;-61
2022/10/23 23:27:46;;;;;;;7.88;2.85;;;;;;;;;;21079039;28;20061;-62
2022/10/23 23:37:47;;;;;;;5.95;3.05;;;;;;;;;;21078843;28;20062;-62
2022/10/23 23:47:49;;;;;;;5.47;3.50;;;;;;;;;;21080447;28;20094;-61
2022/10/23 23:57:51;;;;;;;6.15;2.53;;;;;;;;;;21095172;28;20409;-61
